Time;durP1;ratioP1;P1;durP2;ratioP2;P2;SDS_P1;SDS_P2;PMS_P1;PMS_P2;Temp;Humidity;BMP_temperature;BMP_pressure;BME280_temperature;BME280_humidity;BME280_pressure;Samples;Min_cycle;Max_cycle;Signal;HPM_P1;HPM_P2
2023/09/07 00:00:47;;;;;;;4.82;2.47;;;;;;;;;;4990224;28;20077;-87
2023/09/07 00:03:19;;;;;;;5.57;2.83;;;;;;;;;;4990585;28;20073;-87
2023/09/07 00:05:52;;;;;;;3.67;2.67;;;;;;;;;;4988122;28;20055;-87
2023/09/07 00:08:27;;;;;;;6.15;3.50;;;;;;;;;;4988143;28;20164;-87
2023/09/07 00:11:11;;;;;;;5.30;3.17;;;;;;;;;;4990766;28;20086;-87
2023/09/07 00:13:52;;;;;;;5.13;2.60;;;;;;;;;;4986801;28;20095;-87
2023/09/07 00:16:45;;;;;;;6.07;2.80;;;;;;;;;;4986798;28;20058;-88
2023/09/07 00:19:20;;;;;;;6.65;3.10;;;;;;;;;;4988463;28;20051;-86
2023/09/07 00:21:51;;;;;;;5.35;2.95;;;;;;;;;;4984998;28;20580;-89
2023/09/07 00:24:25;;;;;;;4.30;2.60;;;;;;;;;;4983488;28;20055;-88
2023/09/07 00:26:55;;;;;;;9.18;2.83;;;;;;;;;;4984349;28;20430;-89
2023/09/07 00:29:32;;;;;;;4.45;2.92;;;;;;;;;;4991373;28;20082;-89
2023/09/07 00:32:09;;;;;;;4.67;3.03;;;;;;;;;;4992510;28;20102;-90
2023/09/07 00:34:46;;;;;;;4.45;2.42;;;;;;;;;;4993298;28;20043;-89
2023/09/07 00:37:31;;;;;;;8.20;3.20;;;;;;;;;;4993936;28;20047;-89
2023/09/07 00:40:03;;;;;;;;;;;;;;;;;;4993611;28;20058;-87
2023/09/07 00:42:51;;;;;;;9.30;3.20;;;;;;;;;;4991366;28;19930;-86
2023/09/07 00:45:28;;;;;;;6.07;3.15;;;;;;;;;;4989275;28;20115;-86
2023/09/07 00:48:05;;;;;;;6.43;3.08;;;;;;;;;;4987452;28;20051;-86
2023/09/07 00:50:40;;;;;;;9.00;3.65;;;;;;;;;;4986863;28;20051;-86
2023/09/07 00:53:14;;;;;;;4.18;2.88;;;;;;;;;;4988347;28;20051;-87
2023/09/07 00:56:13;;;;;;;6.10;2.97;;;;;;;;;;5085139;28;20726;-87
2023/09/07 00:58:44;;;;;;;7.32;3.15;;;;;;;;;;5084608;28;20067;-87
2023/09/07 01:01:19;;;;;;;6.88;3.22;;;;;;;;;;5087074;28;20083;-87
2023/09/07 01:03:52;;;;;;;4.45;2.97;;;;;;;;;;5087489;28;20048;-87
2023/09/07 01:06:26;;;;;;;5.07;3.30;;;;;;;;;;5084956;28;20083;-86
2023/09/07 01:09:14;;;;;;;5.50;3.22;;;;;;;;;;5090200;28;20075;-86
2023/09/07 01:11:50;;;;;;;5.35;3.75;;;;;;;;;;5080777;28;20053;-87
2023/09/07 01:14:18;;;;;;;4.22;3.20;;;;;;;;;;5079449;28;20056;-86
2023/09/07 01:16:53;;;;;;;5.28;3.72;;;;;;;;;;5077512;28;20105;-86
2023/09/07 01:19:27;;;;;;;5.10;3.70;;;;;;;;;;5082309;28;20044;-87
2023/09/07 01:21:59;;;;;;;6.47;3.47;;;;;;;;;;5082637;28;20102;-86
2023/09/07 01:24:30;;;;;;;5.15;3.70;;;;;;;;;;5083192;28;20117;-87
2023/09/07 01:27:05;;;;;;;7.07;3.67;;;;;;;;;;5083277;28;20052;-86
2023/09/07 01:29:39;;;;;;;4.72;3.05;;;;;;;;;;5085072;28;20076;-87
2023/09/07 01:32:10;;;;;;;6.95;3.70;;;;;;;;;;5082945;28;20072;-87
2023/09/07 01:34:42;;;;;;;5.68;4.00;;;;;;;;;;5082565;28;20052;-87
2023/09/07 01:37:12;;;;;;;4.43;3.70;;;;;;;;;;5084350;28;20098;-86
2023/09/07 01:39:48;;;;;;;4.90;3.75;;;;;;;;;;5083784;28;20068;-85
2023/09/07 01:42:24;;;;;;;4.68;4.10;;;;;;;;;;5083014;28;20150;-86
2023/09/07 01:44:54;;;;;;;5.43;3.80;;;;;;;;;;5086915;28;20041;-87
2023/09/07 01:47:37;;;;;;;5.88;4.15;;;;;;;;;;5080337;28;20060;-86
2023/09/07 01:50:16;;;;;;;9.60;4.82;;;;;;;;;;5080237;28;20045;-85
2023/09/07 01:52:50;;;;;;;5.40;4.10;;;;;;;;;;5080913;28;20305;-86
2023/09/07 01:55:29;;;;;;;5.63;4.17;;;;;;;;;;5087543;28;20112;-86
2023/09/07 01:58:01;;;;;;;7.63;4.82;;;;;;;;;;5086223;28;20056;-87
2023/09/07 02:00:40;;;;;;;7.10;4.38;;;;;;;;;;5081652;28;20048;-86
2023/09/07 02:03:17;;;;;;;7.18;4.68;;;;;;;;;;5079163;28;20060;-87
2023/09/07 02:05:50;;;;;;;7.78;4.63;;;;;;;;;;5075044;28;20049;-87
2023/09/07 02:08:35;;;;;;;7.70;4.38;;;;;;;;;;5064869;28;20053;-87
2023/09/07 02:11:18;;;;;;;11.50;4.65;;;;;;;;;;5064889;28;20087;-86
2023/09/07 02:14:09;;;;;;;7.75;4.43;;;;;;;;;;5067433;28;20084;-86
2023/09/07 02:17:01;;;;;;;4.90;4.25;;;;;;;;;;5063068;28;20049;-86
2023/09/07 02:19:45;;;;;;;8.20;4.07;;;;;;;;;;5064159;28;20132;-87
2023/09/07 02:22:26;;;;;;;7.88;4.53;;;;;;;;;;5064068;28;20471;-86
2023/09/07 02:24:54;;;;;;;7.15;4.78;;;;;;;;;;5062408;28;20068;-87
2023/09/07 02:27:26;;;;;;;5.65;4.45;;;;;;;;;;5063884;28;20049;-87
2023/09/07 02:30:06;;;;;;;7.35;5.00;;;;;;;;;;5063913;28;20053;-87
2023/09/07 02:32:45;;;;;;;11.80;4.75;;;;;;;;;;5065045;28;20417;-89
2023/09/07 02:35:16;;;;;;;9.35;5.13;;;;;;;;;;5066653;28;20053;-90
2023/09/07 02:37:45;;;;;;;6.70;5.10;;;;;;;;;;5066588;28;20055;-90
2023/09/07 02:40:15;;;;;;;6.25;4.63;;;;;;;;;;5066453;28;20115;-88
2023/09/07 02:42:46;;;;;;;9.20;5.40;;;;;;;;;;5066150;28;20036;-89
2023/09/07 02:45:19;;;;;;;7.30;4.93;;;;;;;;;;5065145;28;20420;-89
2023/09/07 02:47:53;;;;;;;7.88;5.57;;;;;;;;;;5063651;28;20052;-89
2023/09/07 02:50:22;;;;;;;6.43;4.60;;;;;;;;;;5065404;28;20049;-89
2023/09/07 02:53:00;;;;;;;7.60;5.28;;;;;;;;;;5066323;28;20051;-88
2023/09/07 02:55:31;;;;;;;5.78;4.43;;;;;;;;;;5066461;28;20087;-89
2023/09/07 02:58:03;;;;;;;6.22;4.57;;;;;;;;;;5065602;28;20045;-87
2023/09/07 03:00:34;;;;;;;8.88;4.82;;;;;;;;;;5068074;28;20197;-87
2023/09/07 03:03:24;;;;;;;8.25;4.82;;;;;;;;;;5072072;28;20097;-88
2023/09/07 03:08:48;;;;;;;6.70;5.38;;;;;;;;;;5186963;22;20065;-87
2023/09/07 03:11:17;;;;;;;6.97;5.35;;;;;;;;;;5029380;28;20057;-87
2023/09/07 03:13:50;;;;;;;6.07;4.82;;;;;;;;;;5028430;28;20045;-87
2023/09/07 03:16:26;;;;;;;6.85;4.72;;;;;;;;;;5027923;28;20045;-88
2023/09/07 03:18:54;;;;;;;7.95;5.45;;;;;;;;;;5025021;28;20077;-87
2023/09/07 03:21:30;;;;;;;7.55;5.25;;;;;;;;;;5026591;28;20115;-86
2023/09/07 03:24:05;;;;;;;7.25;5.53;;;;;;;;;;5042519;28;20056;-86
2023/09/07 03:26:53;;;;;;;;;;;;;;;;;;;;;
2023/09/07 03:29:24;;;;;;;6.53;5.15;;;;;;;;;;5043532;28;20053;-86
2023/09/07 03:31:55;;;;;;;7.45;5.03;;;;;;;;;;5026256;28;20053;-87
2023/09/07 03:34:36;;;;;;;8.25;5.32;;;;;;;;;;5025434;28;20084;-87
2023/09/07 03:37:11;;;;;;;9.77;5.93;;;;;;;;;;5027542;28;20041;-87
2023/09/07 03:39:39;;;;;;;8.95;6.47;;;;;;;;;;5045541;28;20049;-87
2023/09/07 03:42:15;;;;;;;10.20;5.82;;;;;;;;;;5047407;28;20091;-86
2023/09/07 03:44:47;;;;;;;9.43;5.60;;;;;;;;;;5033616;28;20048;-87
2023/09/07 03:47:16;;;;;;;6.80;5.55;;;;;;;;;;5031719;28;20049;-89
2023/09/07 03:49:45;;;;;;;11.25;6.25;;;;;;;;;;5047962;28;20049;-89
2023/09/07 03:52:24;;;;;;;11.43;5.95;;;;;;;;;;5029771;28;20064;-89
2023/09/07 03:54:55;;;;;;;1.60;1.37;;;;;;;;;;5030587;28;20064;-90
2023/09/07 03:57:29;;;;;;;12.05;6.40;;;;;;;;;;5047437;28;20046;-88
2023/09/07 04:00:01;;;;;;;6.85;5.28;;;;;;;;;;5048010;28;20051;-88
2023/09/07 04:02:34;;;;;;;8.95;5.88;;;;;;;;;;5052106;28;20103;-88
2023/09/07 04:05:04;;;;;;;8.07;5.88;;;;;;;;;;5031812;28;20045;-88
2023/09/07 04:07:35;;;;;;;8.20;6.10;;;;;;;;;;5027331;28;20113;-89
2023/09/07 04:10:06;;;;;;;9.00;6.05;;;;;;;;;;5026891;28;20057;-88
2023/09/07 04:12:37;;;;;;;8.30;5.95;;;;;;;;;;5027911;28;20113;-89
2023/09/07 04:15:16;;;;;;;8.88;5.60;;;;;;;;;;5031337;28;20049;-88
2023/09/07 04:17:46;;;;;;;11.23;7.13;;;;;;;;;;5028525;28;20109;-89
2023/09/07 04:20:21;;;;;;;14.15;6.65;;;;;;;;;;5027758;28;20135;-88
2023/09/07 04:23:21;;;;;;;8.88;6.32;;;;;;;;;;5027794;28;20124;-88
2023/09/07 04:25:49;;;;;;;13.65;7.00;;;;;;;;;;5028474;28;20053;-88
2023/09/07 04:28:23;;;;;;;9.63;6.75;;;;;;;;;;5028441;28;20077;-89
2023/09/07 04:30:54;;;;;;;11.30;6.20;;;;;;;;;;5025162;28;20050;-89
2023/09/07 04:33:29;;;;;;;9.35;6.47;;;;;;;;;;5025008;28;20442;-88
2023/09/07 04:36:10;;;;;;;9.98;6.78;;;;;;;;;;5027258;28;20053;-87
2023/09/07 04:38:40;;;;;;;8.40;6.15;;;;;;;;;;5030686;28;20050;-88
2023/09/07 04:41:10;;;;;;;9.80;6.82;;;;;;;;;;5021035;28;20228;-88
2023/09/07 04:43:51;;;;;;;10.95;6.55;;;;;;;;;;5019854;28;20390;-87
2023/09/07 04:46:21;;;;;;;10.45;6.50;;;;;;;;;;5021666;28;20275;-89
2023/09/07 04:51:34;;;;;;;11.13;6.63;;;;;;;;;;5966008;23;20037;-88
2023/09/07 08:42:21;;;;;;;5.25;3.10;;;;;;;;;;5847718;23;20054;-89
2023/09/07 13:13:25;;;;;;;;;;;;;;;;;;;;;
2023/09/07 15:42:54;;;;;;;5.45;3.70;;;;;;;;;;5844966;23;20041;-90
2023/09/07 15:45:48;;;;;;;;;;;;;;;;;;;;;
2023/09/07 17:04:58;;;;;;;5.30;3.70;;;;;;;;;;5096711;23;20065;-88
2023/09/07 17:08:05;;;;;;;9.10;3.97;;;;;;;;;;4977023;28;20042;-87
2023/09/07 17:10:56;;;;;;;4.67;3.63;;;;;;;;;;4984046;28;20279;-86
2023/09/07 17:13:27;;;;;;;5.72;4.07;;;;;;;;;;4979713;28;20078;-85
2023/09/07 17:16:05;;;;;;;5.97;3.83;;;;;;;;;;4979116;28;20121;-87
2023/09/07 17:18:41;;;;;;;6.72;4.40;;;;;;;;;;4973943;28;20054;-86
2023/09/07 17:21:40;;;;;;;6.57;4.05;;;;;;;;;;4979789;28;20283;-85
2023/09/07 17:24:32;;;;;;;7.40;3.65;;;;;;;;;;4996074;28;20034;-86
2023/09/07 17:27:27;;;;;;;10.10;4.10;;;;;;;;;;4981812;28;20063;-86
2023/09/07 17:33:49;;;;;;;8.77;4.03;;;;;;;;;;4998530;28;20080;-87
2023/09/07 17:36:35;;;;;;;6.32;4.10;;;;;;;;;;4990751;28;20115;-86
2023/09/07 17:39:13;;;;;;;7.63;4.75;;;;;;;;;;4990575;28;20042;-86
2023/09/07 17:41:59;;;;;;;6.63;4.10;;;;;;;;;;4952226;29;20055;-87
2023/09/07 17:44:44;;;;;;;7.55;3.92;;;;;;;;;;4963958;29;20138;-86
2023/09/07 17:51:02;;;;;;;8.50;4.55;;;;;;;;;;4957928;29;20078;-86
2023/09/07 17:53:45;;;;;;;8.82;4.47;;;;;;;;;;4946307;29;20097;-85
2023/09/07 17:56:34;;;;;;;7.77;4.70;;;;;;;;;;4953725;29;20111;-87
2023/09/07 17:59:18;;;;;;;7.72;4.35;;;;;;;;;;4950669;29;20710;-87
2023/09/07 18:01:58;;;;;;;8.40;4.07;;;;;;;;;;4946883;29;20106;-88
2023/09/07 18:04:44;;;;;;;7.45;4.70;;;;;;;;;;4945062;29;20345;-87
2023/09/07 18:07:35;;;;;;;8.77;4.30;;;;;;;;;;4912539;29;20054;-86
2023/09/07 18:10:52;;;;;;;7.60;3.83;;;;;;;;;;4953069;29;20343;-86
2023/09/07 18:15:04;;;;;;;7.78;4.25;;;;;;;;;;5097188;28;20499;-87
2023/09/07 18:18:09;;;;;;;11.00;4.30;;;;;;;;;;5059200;28;20053;-87
2023/09/07 18:21:09;;;;;;;5.90;4.20;;;;;;;;;;5058717;28;20044;-87
2023/09/07 18:24:16;;;;;;;12.20;4.53;;;;;;;;;;5073068;28;20331;-86
2023/09/07 18:27:03;;;;;;;7.55;4.07;;;;;;;;;;5059804;28;20397;-86
2023/09/07 18:29:53;;;;;;;8.75;4.18;;;;;;;;;;5074865;28;20048;-87
2023/09/07 18:32:37;;;;;;;8.13;3.95;;;;;;;;;;5059571;28;20182;-87
2023/09/07 18:35:32;;;;;;;9.48;4.07;;;;;;;;;;5060804;28;20044;-86
2023/09/07 18:38:13;;;;;;;5.93;4.15;;;;;;;;;;5067833;28;20032;-86
2023/09/07 18:41:05;;;;;;;8.52;4.38;;;;;;;;;;5062976;28;20106;-87
2023/09/07 18:43:47;;;;;;;5.10;3.75;;;;;;;;;;5062865;28;20048;-87
2023/09/07 18:50:06;;;;;;;7.45;4.15;;;;;;;;;;5035409;28;20421;-87
2023/09/07 18:52:39;;;;;;;9.18;4.00;;;;;;;;;;5059993;28;20049;-86
2023/09/07 18:55:32;;;;;;;;;;;;;;;;;;;;;
2023/09/07 18:58:05;;;;;;;5.93;3.92;;;;;;;;;;5074786;28;20203;-87
2023/09/07 19:00:37;;;;;;;6.03;3.78;;;;;;;;;;5057181;28;20078;-87
2023/09/07 19:03:13;;;;;;;;;;;;;;;;;;5056718;28;20083;-87
2023/09/07 19:05:45;;;;;;;6.18;3.97;;;;;;;;;;5056647;28;19980;-87
2023/09/07 19:08:31;;;;;;;7.47;4.15;;;;;;;;;;5058036;28;20052;-87
2023/09/07 19:11:14;;;;;;;6.72;3.88;;;;;;;;;;5059883;28;20116;-86
2023/09/07 19:13:46;;;;;;;15.40;3.90;;;;;;;;;;5052604;28;20048;-86
2023/09/07 19:16:30;;;;;;;5.38;3.53;;;;;;;;;;5035301;28;20045;-87
2023/09/07 19:19:04;;;;;;;6.80;3.63;;;;;;;;;;5035979;28;20145;-86
2023/09/07 19:21:48;;;;;;;8.65;4.07;;;;;;;;;;5035996;28;20136;-86
2023/09/07 19:24:37;;;;;;;6.90;3.72;;;;;;;;;;5026138;28;20142;-87
2023/09/07 19:27:37;;;;;;;6.18;3.47;;;;;;;;;;5023774;28;20157;-86
2023/09/07 19:30:28;;;;;;;6.47;3.72;;;;;;;;;;5020884;28;20146;-87
2023/09/07 19:33:19;;;;;;;7.18;3.70;;;;;;;;;;5022542;28;20061;-86
2023/09/07 19:36:13;;;;;;;6.95;3.67;;;;;;;;;;5027351;28;20053;-86
2023/09/07 19:39:05;;;;;;;5.97;3.92;;;;;;;;;;5029881;28;20041;-87
2023/09/07 19:41:57;;;;;;;7.60;3.17;;;;;;;;;;5025513;28;20053;-87
2023/09/07 19:44:56;;;;;;;7.00;3.53;;;;;;;;;;5003823;28;20042;-87
2023/09/07 19:47:51;;;;;;;5.13;3.28;;;;;;;;;;4990568;28;20449;-87
2023/09/07 19:54:08;;;;;;;7.50;3.55;;;;;;;;;;5003039;28;20060;-86
2023/09/07 19:56:49;;;;;;;5.15;3.55;;;;;;;;;;4972297;28;20158;-87
2023/09/07 19:59:29;;;;;;;9.77;3.30;;;;;;;;;;4993822;28;20046;-86
2023/09/07 20:02:08;;;;;;;10.50;3.35;;;;;;;;;;4990477;28;20058;-86
2023/09/07 20:04:49;;;;;;;4.95;3.15;;;;;;;;;;4986025;28;20057;-87
2023/09/07 20:07:33;;;;;;;11.30;3.50;;;;;;;;;;4981042;28;20092;-86
2023/09/07 20:10:34;;;;;;;10.68;3.70;;;;;;;;;;4981559;28;20050;-86
2023/09/07 20:13:10;;;;;;;8.50;3.58;;;;;;;;;;4990967;28;20053;-86
2023/09/07 20:16:14;;;;;;;5.68;3.95;;;;;;;;;;5022528;28;20235;-86
2023/09/07 20:19:00;;;;;;;7.30;3.53;;;;;;;;;;5046331;28;20049;-85
2023/09/07 20:21:50;;;;;;;8.95;3.65;;;;;;;;;;5050342;28;20044;-86
2023/09/07 20:24:44;;;;;;;8.73;3.53;;;;;;;;;;5049502;28;20291;-87
2023/09/07 20:33:34;;;;;;;6.70;3.70;;;;;;;;;;5729886;22;20085;-87
2023/09/07 20:36:32;;;;;;;9.60;4.10;;;;;;;;;;5111664;28;20035;-86
2023/09/07 20:39:37;;;;;;;6.47;3.35;;;;;;;;;;5105157;28;20063;-86
2023/09/07 20:42:18;;;;;;;4.97;3.65;;;;;;;;;;5100526;28;20282;-87
2023/09/07 20:44:58;;;;;;;10.38;3.90;;;;;;;;;;5107587;28;20052;-86
2023/09/07 20:47:28;;;;;;;5.63;3.75;;;;;;;;;;5040969;28;20052;-89
2023/09/07 20:50:04;;;;;;;5.55;3.92;;;;;;;;;;5105816;28;20062;-89
2023/09/07 20:52:41;;;;;;;7.07;4.10;;;;;;;;;;5104292;28;20131;-89
2023/09/07 20:55:14;;;;;;;8.73;3.40;;;;;;;;;;5096328;28;20188;-89
2023/09/07 20:57:48;;;;;;;6.47;3.80;;;;;;;;;;5106443;28;20054;-89
2023/09/07 21:00:27;;;;;;;7.45;3.47;;;;;;;;;;5107266;28;20249;-89
2023/09/07 21:03:02;;;;;;;5.93;3.47;;;;;;;;;;5105677;28;20065;-89
2023/09/07 21:05:32;;;;;;;9.02;4.22;;;;;;;;;;5106844;28;20064;-88
2023/09/07 21:08:28;;;;;;;8.23;4.18;;;;;;;;;;5072355;28;20040;-88
2023/09/07 21:11:15;;;;;;;5.07;3.83;;;;;;;;;;5108372;28;20048;-87
2023/09/07 21:14:04;;;;;;;6.50;3.70;;;;;;;;;;5106604;28;20052;-88
2023/09/07 21:16:42;;;;;;;9.20;3.88;;;;;;;;;;5110273;28;20047;-89
2023/09/07 21:19:29;;;;;;;10.00;3.20;;;;;;;;;;5106479;28;20194;-88
2023/09/07 21:22:05;;;;;;;8.38;3.40;;;;;;;;;;5106531;28;20044;-89
2023/09/07 21:24:37;;;;;;;7.07;3.37;;;;;;;;;;5107845;28;20040;-89
2023/09/07 21:27:09;;;;;;;4.45;3.55;;;;;;;;;;5108492;28;20056;-89
2023/09/07 21:29:43;;;;;;;6.78;3.72;;;;;;;;;;5113161;28;20064;-88
2023/09/07 21:32:14;;;;;;;5.82;3.67;;;;;;;;;;5106212;28;20043;-89
2023/09/07 21:34:48;;;;;;;8.02;3.92;;;;;;;;;;5104698;28;20043;-89
2023/09/07 21:37:22;;;;;;;9.80;3.72;;;;;;;;;;5106129;28;20043;-88
2023/09/07 21:39:56;;;;;;;13.77;4.28;;;;;;;;;;5104400;28;20162;-88
2023/09/07 21:42:24;;;;;;;10.43;3.83;;;;;;;;;;5104466;28;20044;-89
2023/09/07 21:45:08;;;;;;;7.57;4.38;;;;;;;;;;5109244;28;20055;-89
2023/09/07 21:47:39;;;;;;;20.70;5.00;;;;;;;;;;5105743;28;20044;-89
2023/09/07 21:50:18;;;;;;;8.13;4.15;;;;;;;;;;5104739;28;20067;-89
2023/09/07 21:53:08;;;;;;;9.48;3.92;;;;;;;;;;5107153;28;20070;-89
2023/09/07 21:55:39;;;;;;;6.50;3.88;;;;;;;;;;5103763;28;20083;-89
2023/09/07 21:58:24;;;;;;;;;;;;;;;;;;;;;
2023/09/07 22:00:55;;;;;;;8.23;4.22;;;;;;;;;;5104353;28;20032;-89
2023/09/07 22:03:50;;;;;;;6.50;4.22;;;;;;;;;;5100477;28;20112;-89
2023/09/07 22:06:22;;;;;;;8.40;3.50;;;;;;;;;;5103962;28;20044;-89
2023/09/07 22:08:59;;;;;;;7.10;3.85;;;;;;;;;;5103421;28;20062;-88
2023/09/07 22:11:27;;;;;;;6.88;3.88;;;;;;;;;;5102041;28;20122;-88
2023/09/07 22:14:18;;;;;;;6.53;3.00;;;;;;;;;;5103552;28;20048;-87
2023/09/07 22:27:36;;;;;;;7.28;4.47;;;;;;;;;;4936354;27;4778600;-87
2023/09/07 22:30:14;;;;;;;9.82;4.20;;;;;;;;;;5110269;28;20068;-88
2023/09/07 22:32:53;;;;;;;5.88;3.65;;;;;;;;;;5110662;28;20070;-87
2023/09/07 22:35:39;;;;;;;7.93;4.38;;;;;;;;;;5122580;28;20275;-86
2023/09/07 22:38:10;;;;;;;8.55;4.50;;;;;;;;;;5103064;28;20039;-88
2023/09/07 22:40:47;;;;;;;6.88;3.83;;;;;;;;;;5104379;28;20075;-87
2023/09/07 22:43:20;;;;;;;5.00;3.85;;;;;;;;;;5103003;28;20501;-88
2023/09/07 22:46:04;;;;;;;15.55;4.15;;;;;;;;;;5105180;28;20048;-88
2023/09/07 22:48:56;;;;;;;;;;;;;;;;;;;;;
2023/09/07 22:51:25;;;;;;;8.45;4.07;;;;;;;;;;5121973;28;20145;-86
2023/09/07 22:53:56;;;;;;;8.52;4.15;;;;;;;;;;5104738;28;20232;-87
2023/09/07 22:56:32;;;;;;;6.13;4.03;;;;;;;;;;5104694;28;20065;-86
2023/09/07 22:59:01;;;;;;;5.60;3.92;;;;;;;;;;5102668;28;20145;-87
2023/09/07 23:01:30;;;;;;;9.23;4.32;;;;;;;;;;5105585;28;20059;-87
2023/09/07 23:04:03;;;;;;;11.88;4.55;;;;;;;;;;5104370;28;20385;-87
2023/09/07 23:06:36;;;;;;;7.68;5.00;;;;;;;;;;5102065;28;20127;-87
2023/09/07 23:09:50;;;;;;;7.25;4.45;;;;;;;;;;5119845;28;20090;-87
2023/09/07 23:12:31;;;;;;;7.43;4.45;;;;;;;;;;5101959;28;20052;-87
2023/09/07 23:15:05;;;;;;;8.27;4.40;;;;;;;;;;5103113;28;20052;-87
2023/09/07 23:17:58;;;;;;;0.03;0.03;;;;;;;;;;5101201;28;20052;-87
2023/09/07 23:20:47;;;;;;;6.88;4.10;;;;;;;;;;5088458;28;20052;-87
2023/09/07 23:23:40;;;;;;;0.00;0.00;;;;;;;;;;5099321;28;20044;-87
2023/09/07 23:26:25;;;;;;;0.00;0.00;;;;;;;;;;5106701;28;20064;-87
2023/09/07 23:29:07;;;;;;;0.00;0.00;;;;;;;;;;5093330;28;20121;-86
2023/09/07 23:31:58;;;;;;;0.00;0.00;;;;;;;;;;5094654;28;20048;-86
2023/09/07 23:34:38;;;;;;;0.00;0.00;;;;;;;;;;5094511;28;20108;-87
2023/09/07 23:37:10;;;;;;;0.00;0.00;;;;;;;;;;5093707;28;20059;-87
2023/09/07 23:39:43;;;;;;;0.00;0.00;;;;;;;;;;5094772;28;20150;-90
2023/09/07 23:42:15;;;;;;;0.10;0.10;;;;;;;;;;5111975;28;20095;-89
2023/09/07 23:44:42;;;;;;;0.00;0.00;;;;;;;;;;5094924;28;20075;-89
2023/09/07 23:47:13;;;;;;;3.10;1.02;;;;;;;;;;5094840;28;20052;-89
2023/09/07 23:49:40;;;;;;;10.15;4.97;;;;;;;;;;5093501;28;20079;-90
2023/09/07 23:52:09;;;;;;;7.32;4.07;;;;;;;;;;5094142;28;20146;-89
2023/09/07 23:54:36;;;;;;;8.80;5.25;;;;;;;;;;5093186;28;20075;-88
2023/09/07 23:57:09;;;;;;;9.05;5.35;;;;;;;;;;5110048;28;20126;-89
2023/09/07 23:59:43;;;;;;;10.35;5.10;;;;;;;;;;5093465;28;20087;-89
